sensor_id;sensor_type;location;lat;lon;timestamp;pressure;altitude;pressure_sealevel;temperature;humidity
21960;BME280;11144;43.030;25.108;2023-05-28T00:01:51;99117.28;;;17.11;100.00
21960;BME280;11144;43.030;25.108;2023-05-28T00:03:25;99104.78;;;17.11;100.00
21960;BME280;11144;43.030;25.108;2023-05-28T00:04:59;99106.50;;;17.12;100.00
21960;BME280;11144;43.030;25.108;2023-05-28T00:06:32;99108.19;;;17.13;100.00
21960;BME280;11144;43.030;25.108;2023-05-28T00:08:05;99115.47;;;17.11;100.00
21960;BME280;11144;43.030;25.108;2023-05-28T00:09:38;99106.69;;;17.09;100.00
21960;BME280;11144;43.030;25.108;2023-05-28T00:11:13;99112.03;;;17.09;100.00
21960;BME280;11144;43.030;25.108;2023-05-28T00:12:46;99111.28;;;17.07;100.00
21960;BME280;11144;43.030;25.108;2023-05-28T00:14:19;99106.22;;;17.03;100.00
21960;BME280;11144;43.030;25.108;2023-05-28T00:15:52;99110.06;;;16.99;100.00
21960;BME280;11144;43.030;25.108;2023-05-28T00:17:28;99113.59;;;16.99;100.00
21960;BME280;11144;43.030;25.108;2023-05-28T00:19:01;99100.25;;;16.99;100.00
21960;BME280;11144;43.030;25.108;2023-05-28T00:20:35;99100.25;;;16.99;100.00
21960;BME280;11144;43.030;25.108;2023-05-28T00:22:08;99119.50;;;17.04;100.00
21960;BME280;11144;43.030;25.108;2023-05-28T00:23:41;99109.19;;;16.98;100.00
21960;BME280;11144;43.030;25.108;2023-05-28T00:25:14;99112.66;;;17.00;100.00
21960;BME280;11144;43.030;25.108;2023-05-28T00:26:47;99116.06;;;17.02;100.00
21960;BME280;11144;43.030;25.108;2023-05-28T00:28:20;99111.56;;;17.03;100.00
21960;BME280;11144;43.030;25.108;2023-05-28T00:29:54;99105.47;;;17.01;100.00
21960;BME280;11144;43.030;25.108;2023-05-28T00:31:27;99099.81;;;17.05;100.00
21960;BME280;11144;43.030;25.108;2023-05-28T00:33:02;99098.75;;;17.08;100.00
21960;BME280;11144;43.030;25.108;2023-05-28T00:34:35;99097.94;;;17.07;100.00
21960;BME280;11144;43.030;25.108;2023-05-28T00:36:08;99094.47;;;17.05;100.00
21960;BME280;11144;43.030;25.108;2023-05-28T00:37:42;99092.69;;;17.06;100.00
21960;BME280;11144;43.030;25.108;2023-05-28T00:39:15;99101.53;;;17.06;100.00
21960;BME280;11144;43.030;25.108;2023-05-28T00:40:48;99090.84;;;17.06;100.00
21960;BME280;11144;43.030;25.108;2023-05-28T00:42:22;99090.09;;;17.04;100.00
21960;BME280;11144;43.030;25.108;2023-05-28T00:43:54;99089.56;;;16.99;100.00
21960;BME280;11144;43.030;25.108;2023-05-28T00:45:27;99090.69;;;16.95;100.00
21960;BME280;11144;43.030;25.108;2023-05-28T00:47:01;99079.25;;;16.93;100.00
21960;BME280;11144;43.030;25.108;2023-05-28T00:48:37;99083.94;;;16.89;100.00
21960;BME280;11144;43.030;25.108;2023-05-28T00:50:10;99091.00;;;16.91;100.00
21960;BME280;11144;43.030;25.108;2023-05-28T00:51:45;99093.78;;;16.89;100.00
21960;BME280;11144;43.030;25.108;2023-05-28T00:53:19;99101.44;;;16.81;100.00
21960;BME280;11144;43.030;25.108;2023-05-28T00:54:53;99100.03;;;16.75;100.00
21960;BME280;11144;43.030;25.108;2023-05-28T00:56:27;99102.69;;;16.75;100.00
21960;BME280;11144;43.030;25.108;2023-05-28T00:58:01;99109.09;;;16.73;100.00
21960;BME280;11144;43.030;25.108;2023-05-28T00:59:37;99098.78;;;16.67;100.00
21960;BME280;11144;43.030;25.108;2023-05-28T01:01:11;99102.63;;;16.63;100.00
21960;BME280;11144;43.030;25.108;2023-05-28T01:02:44;99104.31;;;16.64;100.00
21960;BME280;11144;43.030;25.108;2023-05-28T01:04:19;99098.97;;;16.64;100.00
21960;BME280;11144;43.030;25.108;2023-05-28T01:05:54;99097.66;;;16.57;100.00
21960;BME280;11144;43.030;25.108;2023-05-28T01:07:28;99101.47;;;16.53;100.00
21960;BME280;11144;43.030;25.108;2023-05-28T01:09:02;99103.19;;;16.54;100.00
21960;BME280;11144;43.030;25.108;2023-05-28T01:10:36;99097.94;;;16.52;100.00
21960;BME280;11144;43.030;25.108;2023-05-28T01:12:09;99103.19;;;16.54;100.00
21960;BME280;11144;43.030;25.108;2023-05-28T01:13:42;99101.94;;;16.59;100.00
21960;BME280;11144;43.030;25.108;2023-05-28T01:15:17;99104.69;;;16.58;100.00
21960;BME280;11144;43.030;25.108;2023-05-28T01:16:49;99111.78;;;16.59;100.00
21960;BME280;11144;43.030;25.108;2023-05-28T01:18:24;99106.34;;;16.60;100.00
21960;BME280;11144;43.030;25.108;2023-05-28T01:20:03;99102.63;;;16.63;100.00
21960;BME280;11144;43.030;25.108;2023-05-28T01:21:44;99093.84;;;16.61;100.00
21960;BME280;11144;43.030;25.108;2023-05-28T01:23:19;99098.97;;;16.64;100.00
21960;BME280;11144;43.030;25.108;2023-05-28T01:24:56;99093.44;;;16.67;100.00
21960;BME280;11144;43.030;25.108;2023-05-28T01:26:30;99095.34;;;16.65;100.00
21960;BME280;11144;43.030;25.108;2023-05-28T01:28:10;99085.25;;;16.70;100.00
21960;BME280;11144;43.030;25.108;2023-05-28T01:29:45;99082.59;;;16.70;100.00
21960;BME280;11144;43.030;25.108;2023-05-28T01:31:18;99081.06;;;16.66;100.00
21960;BME280;11144;43.030;25.108;2023-05-28T01:32:52;99083.72;;;16.66;100.00
21960;BME280;11144;43.030;25.108;2023-05-28T01:34:26;99082.78;;;16.67;100.00
21960;BME280;11144;43.030;25.108;2023-05-28T01:35:58;99073.25;;;16.63;100.00
21960;BME280;11144;43.030;25.108;2023-05-28T01:37:36;99082.97;;;16.64;100.00
21960;BME280;11144;43.030;25.108;2023-05-28T01:39:11;99082.22;;;16.62;100.00
21960;BME280;11144;43.030;25.108;2023-05-28T01:40:49;99083.16;;;16.61;100.00
21960;BME280;11144;43.030;25.108;2023-05-28T01:42:23;99085.06;;;16.59;100.00
21960;BME280;11144;43.030;25.108;2023-05-28T01:43:56;99090.41;;;16.59;100.00
21960;BME280;11144;43.030;25.108;2023-05-28T01:45:30;99086.78;;;16.60;100.00
21960;BME280;11144;43.030;25.108;2023-05-28T01:47:05;99086.97;;;16.57;100.00
21960;BME280;11144;43.030;25.108;2023-05-28T01:48:37;99095.75;;;16.59;100.00
21960;BME280;11144;43.030;25.108;2023-05-28T01:50:11;99095.56;;;16.62;100.00
21960;BME280;11144;43.030;25.108;2023-05-28T01:51:44;99093.66;;;16.64;100.00
21960;BME280;11144;43.030;25.108;2023-05-28T01:53:18;99092.59;;;16.66;100.00
21960;BME280;11144;43.030;25.108;2023-05-28T01:54:52;99093.25;;;16.70;100.00
21960;BME280;11144;43.030;25.108;2023-05-28T01:56:27;99084.28;;;16.71;100.00
21960;BME280;11144;43.030;25.108;2023-05-28T01:58:01;99081.63;;;16.71;100.00
21960;BME280;11144;43.030;25.108;2023-05-28T01:59:35;99090.19;;;16.76;100.00
21960;BME280;11144;43.030;25.108;2023-05-28T02:01:13;99097.25;;;16.77;100.00
21960;BME280;11144;43.030;25.108;2023-05-28T02:02:47;99094.78;;;16.74;100.00
21960;BME280;11144;43.030;25.108;2023-05-28T02:04:22;99092.84;;;16.76;100.00
21960;BME280;11144;43.030;25.108;2023-05-28T02:05:54;99096.47;;;16.75;100.00
21960;BME280;11144;43.030;25.108;2023-05-28T02:07:28;99100.94;;;16.74;100.00
21960;BME280;11144;43.030;25.108;2023-05-28T02:09:01;99102.59;;;16.77;100.00
21960;BME280;11144;43.030;25.108;2023-05-28T02:10:35;99098.00;;;16.79;100.00
21960;BME280;11144;43.030;25.108;2023-05-28T02:12:09;99104.00;;;16.83;100.00
21960;BME280;11144;43.030;25.108;2023-05-28T02:13:42;99108.28;;;16.85;100.00
21960;BME280;11144;43.030;25.108;2023-05-28T02:15:16;99097.81;;;16.82;100.00
21960;BME280;11144;43.030;25.108;2023-05-28T02:16:50;99100.56;;;16.80;100.00
21960;BME280;11144;43.030;25.108;2023-05-28T02:18:24;99097.59;;;16.85;100.00
21960;BME280;11144;43.030;25.108;2023-05-28T02:19:58;99093.78;;;16.89;100.00
21960;BME280;11144;43.030;25.108;2023-05-28T02:21:31;99098.94;;;16.92;100.00
21960;BME280;11144;43.030;25.108;2023-05-28T02:23:06;99099.75;;;16.92;100.00
21960;BME280;11144;43.030;25.108;2023-05-28T02:24:40;99104.28;;;16.92;100.00
21960;BME280;11144;43.030;25.108;2023-05-28T02:26:13;99107.69;;;16.94;100.00
21960;BME280;11144;43.030;25.108;2023-05-28T02:27:48;99104.91;;;16.96;100.00
21960;BME280;11144;43.030;25.108;2023-05-28T02:29:23;99113.03;;;16.94;100.00
21960;BME280;11144;43.030;25.108;2023-05-28T02:30:57;99105.59;;;16.99;100.00
21960;BME280;11144;43.030;25.108;2023-05-28T02:32:29;99101.75;;;17.03;100.00
21960;BME280;11144;43.030;25.108;2023-05-28T02:34:02;99100.69;;;17.06;100.00
21960;BME280;11144;43.030;25.108;2023-05-28T02:35:36;99095.25;;;17.07;100.00
21960;BME280;11144;43.030;25.108;2023-05-28T02:37:09;99103.06;;;17.10;100.00
21960;BME280;11144;43.030;25.108;2023-05-28T02:38:43;99109.34;;;17.09;100.00
21960;BME280;11144;43.030;25.108;2023-05-28T02:40:16;99104.22;;;17.06;100.00
21960;BME280;11144;43.030;25.108;2023-05-28T02:41:50;99099.63;;;17.08;100.00
21960;BME280;11144;43.030;25.108;2023-05-28T02:43:25;99102.22;;;17.10;100.00
21960;BME280;11144;43.030;25.108;2023-05-28T02:44:57;99101.34;;;17.09;100.00
21960;BME280;11144;43.030;25.108;2023-05-28T02:46:30;99098.56;;;17.11;100.00
21960;BME280;11144;43.030;25.108;2023-05-28T02:48:04;99097.31;;;17.16;100.00
21960;BME280;11144;43.030;25.108;2023-05-28T02:49:37;99094.84;;;17.13;100.00
21960;BME280;11144;43.030;25.108;2023-05-28T02:51:10;99093.91;;;17.14;100.00
21960;BME280;11144;43.030;25.108;2023-05-28T02:53:02;99097.50;;;17.13;100.00
21960;BME280;11144;43.030;25.108;2023-05-28T02:54:36;99099.88;;;17.18;100.00
21960;BME280;11144;43.030;25.108;2023-05-28T02:56:09;99099.88;;;17.18;100.00
21960;BME280;11144;43.030;25.108;2023-05-28T02:57:47;99096.34;;;17.17;100.00
21960;BME280;11144;43.030;25.108;2023-05-28T02:59:22;99102.66;;;17.16;100.00
21960;BME280;11144;43.030;25.108;2023-05-28T03:00:56;99099.88;;;17.18;100.00
21960;BME280;11144;43.030;25.108;2023-05-28T03:02:30;99090.91;;;17.19;100.00
21960;BME280;11144;43.030;25.108;2023-05-28T03:04:04;99093.38;;;17.22;100.00
21960;BME280;11144;43.030;25.108;2023-05-28T03:05:36;99093.47;;;17.20;100.00
21960;BME280;11144;43.030;25.108;2023-05-28T03:07:10;99091.97;;;17.16;100.00
21960;BME280;11144;43.030;25.108;2023-05-28T03:08:43;99097.31;;;17.16;100.00
21960;BME280;11144;43.030;25.108;2023-05-28T03:10:17;99082.97;;;17.17;100.00
21960;BME280;11144;43.030;25.108;2023-05-28T03:11:50;99085.66;;;17.17;100.00
21960;BME280;11144;43.030;25.108;2023-05-28T03:13:24;99092.72;;;17.18;100.00
21960;BME280;11144;43.030;25.108;2023-05-28T03:14:59;99095.22;;;17.21;100.00
21960;BME280;11144;43.030;25.108;2023-05-28T03:16:34;99098.41;;;17.26;100.00
21960;BME280;11144;43.030;25.108;2023-05-28T03:18:15;99098.41;;;17.26;100.00
21960;BME280;11144;43.030;25.108;2023-05-28T03:19:49;99099.16;;;17.28;100.00
21960;BME280;11144;43.030;25.108;2023-05-28T03:21:24;99094.78;;;17.27;100.00
21960;BME280;11144;43.030;25.108;2023-05-28T03:22:58;99096.72;;;17.25;100.00
21960;BME280;11144;43.030;25.108;2023-05-28T03:24:33;99101.63;;;17.31;100.00
21960;BME280;11144;43.030;25.108;2023-05-28T03:26:07;99093.63;;;17.31;100.00
21960;BME280;11144;43.030;25.108;2023-05-28T03:27:41;99100.38;;;17.37;100.00
21960;BME280;11144;43.030;25.108;2023-05-28T03:29:15;99097.59;;;17.38;100.00
21960;BME280;11144;43.030;25.108;2023-05-28T03:31:09;99089.56;;;17.38;100.00
21960;BME280;11144;43.030;25.108;2023-05-28T03:32:42;99098.31;;;17.42;100.00
21960;BME280;11144;43.030;25.108;2023-05-28T03:34:16;99100.97;;;17.42;100.00
21960;BME280;11144;43.030;25.108;2023-05-28T03:35:49;99093.78;;;17.42;100.00
21960;BME280;11144;43.030;25.108;2023-05-28T03:37:21;99083.25;;;17.39;100.00
21960;BME280;11144;43.030;25.108;2023-05-28T03:38:55;99095.69;;;17.40;100.00
21960;BME280;11144;43.030;25.108;2023-05-28T03:40:30;99086.75;;;17.41;100.00
21960;BME280;11144;43.030;25.108;2023-05-28T03:42:05;99083.09;;;17.42;100.00
21960;BME280;11144;43.030;25.108;2023-05-28T03:43:40;99086.06;;;17.38;100.00
21960;BME280;11144;43.030;25.108;2023-05-28T03:45:14;99086.75;;;17.41;100.00
21960;BME280;11144;43.030;25.108;2023-05-28T03:46:49;99081.00;;;17.47;100.00
21960;BME280;11144;43.030;25.108;2023-05-28T03:48:23;99086.88;;;17.52;100.00
21960;BME280;11144;43.030;25.108;2023-05-28T03:49:57;99078.66;;;17.55;100.00
21960;BME280;11144;43.030;25.108;2023-05-28T03:51:32;99080.34;;;17.56;100.00
21960;BME280;11144;43.030;25.108;2023-05-28T03:53:05;99082.28;;;17.54;100.00
21960;BME280;11144;43.030;25.108;2023-05-28T03:54:39;99090.59;;;17.50;100.00
21960;BME280;11144;43.030;25.108;2023-05-28T03:56:11;99086.53;;;17.44;100.00
21960;BME280;11144;43.030;25.108;2023-05-28T03:57:45;99081.19;;;17.44;100.00
21960;BME280;11144;43.030;25.108;2023-05-28T03:59:19;99086.75;;;17.41;100.00
21960;BME280;11144;43.030;25.108;2023-05-28T04:00:52;99099.53;;;17.36;100.00
21960;BME280;11144;43.030;25.108;2023-05-28T04:02:27;99088.84;;;17.36;100.00
21960;BME280;11144;43.030;25.108;2023-05-28T04:04:02;99095.03;;;17.37;100.00
21960;BME280;11144;43.030;25.108;2023-05-28T04:05:36;99097.44;;;17.41;100.00
21960;BME280;11144;43.030;25.108;2023-05-28T04:07:10;99099.31;;;17.39;100.00
21960;BME280;11144;43.030;25.108;2023-05-28T04:08:43;99098.06;;;17.45;100.00
21960;BME280;11144;43.030;25.108;2023-05-28T04:10:17;99096.78;;;17.50;100.00
21960;BME280;11144;43.030;25.108;2023-05-28T04:11:50;99101.94;;;17.53;100.00
21960;BME280;11144;43.030;25.108;2023-05-28T04:13:22;99099.19;;;17.67;100.00
21960;BME280;11144;43.030;25.108;2023-05-28T04:14:56;99101.38;;;17.75;100.00
21960;BME280;11144;43.030;25.108;2023-05-28T04:16:31;99107.56;;;17.75;100.00
21960;BME280;11144;43.030;25.108;2023-05-28T04:18:05;99098.56;;;17.64;100.00
21960;BME280;11144;43.030;25.108;2023-05-28T04:19:39;99099.00;;;17.70;100.00
21960;BME280;11144;43.030;25.108;2023-05-28T04:21:13;99096.72;;;17.64;100.00
21960;BME280;11144;43.030;25.108;2023-05-28T04:22:46;99096.41;;;17.56;100.00
21960;BME280;11144;43.030;25.108;2023-05-28T04:24:20;99097.78;;;17.62;100.00
21960;BME280;11144;43.030;25.108;2023-05-28T04:25:53;99109.66;;;17.58;100.00
21960;BME280;11144;43.030;25.108;2023-05-28T04:27:28;99103.44;;;17.57;100.00
21960;BME280;11144;43.030;25.108;2023-05-28T04:29:02;99100.66;;;17.59;100.00
21960;BME280;11144;43.030;25.108;2023-05-28T04:30:36;99099.84;;;17.58;100.00
21960;BME280;11144;43.030;25.108;2023-05-28T04:32:12;99104.31;;;17.58;100.00
21960;BME280;11144;43.030;25.108;2023-05-28T04:33:47;99091.47;;;17.63;100.00
21960;BME280;11144;43.030;25.108;2023-05-28T04:35:22;99101.09;;;17.65;100.00
21960;BME280;11144;43.030;25.108;2023-05-28T04:36:55;99093.53;;;17.59;100.00
21960;BME280;11144;43.030;25.108;2023-05-28T04:38:30;99092.75;;;17.57;100.00
21960;BME280;11144;43.030;25.108;2023-05-28T04:40:06;99099.84;;;17.58;100.00
21960;BME280;11144;43.030;25.108;2023-05-28T04:41:44;99097.38;;;17.55;100.00
21960;BME280;11144;43.030;25.108;2023-05-28T04:43:18;99097.31;;;17.43;100.00
21960;BME280;11144;43.030;25.108;2023-05-28T04:44:53;99101.44;;;17.34;100.00
21960;BME280;11144;43.030;25.108;2023-05-28T04:46:29;99095.22;;;17.21;100.00
21960;BME280;11144;43.030;25.108;2023-05-28T04:48:03;99095.06;;;17.10;100.00
21960;BME280;11144;43.030;25.108;2023-05-28T04:49:38;99099.81;;;17.05;100.00
21960;BME280;11144;43.030;25.108;2023-05-28T04:51:12;99105.59;;;16.99;100.00
21960;BME280;11144;43.030;25.108;2023-05-28T04:52:46;99111.88;;;16.98;100.00
21960;BME280;11144;43.030;25.108;2023-05-28T04:54:22;99110.34;;;16.94;100.00
21960;BME280;11144;43.030;25.108;2023-05-28T04:55:56;99118.00;;;16.86;100.00
21960;BME280;11144;43.030;25.108;2023-05-28T04:57:29;99114.69;;;16.83;100.00
21960;BME280;11144;43.030;25.108;2023-05-28T04:59:02;99118.72;;;16.75;100.00
21960;BME280;11144;43.030;25.108;2023-05-28T05:00:40;99119.00;;;16.71;100.00
21960;BME280;11144;43.030;25.108;2023-05-28T05:02:14;99123.78;;;16.66;100.00
21960;BME280;11144;43.030;25.108;2023-05-28T05:03:49;99113.28;;;16.63;100.00
21960;BME280;11144;43.030;25.108;2023-05-28T05:05:24;99118.81;;;16.60;100.00
21960;BME280;11144;43.030;25.108;2023-05-28T05:06:58;99115.28;;;16.59;100.00
21960;BME280;11144;43.030;25.108;2023-05-28T05:08:32;99124.53;;;16.54;100.00
21960;BME280;11144;43.030;25.108;2023-05-28T05:10:06;99117.50;;;16.53;100.00
21960;BME280;11144;43.030;25.108;2023-05-28T05:11:41;99115.97;;;16.49;100.00
21960;BME280;11144;43.030;25.108;2023-05-28T05:13:14;99129.13;;;16.52;100.00
21960;BME280;11144;43.030;25.108;2023-05-28T05:14:49;99129.69;;;16.57;100.00
21960;BME280;11144;43.030;25.108;2023-05-28T05:16:21;99127.38;;;16.65;100.00
21960;BME280;11144;43.030;25.108;2023-05-28T05:17:55;99129.31;;;16.63;100.00
21960;BME280;11144;43.030;25.108;2023-05-28T05:19:28;99128.63;;;16.59;100.00
21960;BME280;11144;43.030;25.108;2023-05-28T05:21:03;99128.53;;;16.61;100.00
21960;BME280;11144;43.030;25.108;2023-05-28T05:22:37;99122.66;;;16.56;100.00
21960;BME280;11144;43.030;25.108;2023-05-28T05:24:09;99131.41;;;16.58;100.00
21960;BME280;11144;43.030;25.108;2023-05-28T05:25:43;99123.28;;;16.59;100.00
21960;BME280;11144;43.030;25.108;2023-05-28T05:27:16;99129.50;;;16.60;100.00
21960;BME280;11144;43.030;25.108;2023-05-28T05:28:51;99132.72;;;16.65;100.00
21960;BME280;11144;43.030;25.108;2023-05-28T05:30:24;99143.22;;;16.68;100.00
21960;BME280;11144;43.030;25.108;2023-05-28T05:31:58;99141.50;;;16.67;100.00
21960;BME280;11144;43.030;25.108;2023-05-28T05:33:31;99127.09;;;16.69;100.00
21960;BME280;11144;43.030;25.108;2023-05-28T05:35:28;99127.00;;;16.71;100.00
21960;BME280;11144;43.030;25.108;2023-05-28T05:37:18;99135.56;;;16.76;100.00
21960;BME280;11144;43.030;25.108;2023-05-28T05:39:30;99133.88;;;16.75;100.00
21960;BME280;11144;43.030;25.108;2023-05-28T05:41:24;99131.56;;;16.69;100.00
21960;BME280;11144;43.030;25.108;2023-05-28T05:43:12;99145.06;;;16.67;100.00
21960;BME280;11144;43.030;25.108;2023-05-28T05:44:46;99136.38;;;16.64;100.00
21960;BME280;11144;43.030;25.108;2023-05-28T05:46:19;99144.38;;;16.64;100.00
21960;BME280;11144;43.030;25.108;2023-05-28T05:47:53;99144.28;;;16.65;100.00
21960;BME280;11144;43.030;25.108;2023-05-28T05:49:26;99145.16;;;16.66;100.00
21960;BME280;11144;43.030;25.108;2023-05-28T05:50:59;99146.66;;;16.70;100.00
21960;BME280;11144;43.030;25.108;2023-05-28T05:52:36;99143.03;;;16.71;100.00
21960;BME280;11144;43.030;25.108;2023-05-28T05:54:10;99146.25;;;16.76;100.00
21960;BME280;11144;43.030;25.108;2023-05-28T05:55:44;99149.69;;;16.78;100.00
21960;BME280;11144;43.030;25.108;2023-05-28T05:57:17;99150.66;;;16.77;100.00
21960;BME280;11144;43.030;25.108;2023-05-28T05:58:51;99157.13;;;16.87;100.00
21960;BME280;11144;43.030;25.108;2023-05-28T06:00:25;99147.84;;;16.92;100.00
21960;BME280;11144;43.030;25.108;2023-05-28T06:02:00;99149.59;;;16.94;100.00
21960;BME280;11144;43.030;25.108;2023-05-28T06:03:34;99155.78;;;16.94;100.00
21960;BME280;11144;43.030;25.108;2023-05-28T06:05:20;99152.13;;;16.95;100.00
21960;BME280;11144;43.030;25.108;2023-05-28T06:07:12;99155.78;;;16.94;100.00
21960;BME280;11144;43.030;25.108;2023-05-28T06:08:57;99153.19;;;16.92;100.00
21960;BME280;11144;43.030;25.108;2023-05-28T06:11:02;99156.56;;;16.82;100.00
21960;BME280;11144;43.030;25.108;2023-05-28T06:12:35;99158.28;;;16.83;100.00
21960;BME280;11144;43.030;25.108;2023-05-28T06:14:09;99152.94;;;16.83;100.00
21960;BME280;11144;43.030;25.108;2023-05-28T06:15:43;99159.88;;;16.85;100.00
21960;BME280;11144;43.030;25.108;2023-05-28T06:17:16;99159.78;;;16.87;100.00
21960;BME280;11144;43.030;25.108;2023-05-28T06:18:49;99165.13;;;16.87;100.00
21960;BME280;11144;43.030;25.108;2023-05-28T06:20:23;99164.19;;;16.88;100.00
21960;BME280;11144;43.030;25.108;2023-05-28T06:21:57;99152.94;;;16.83;100.00
21960;BME280;11144;43.030;25.108;2023-05-28T06:23:31;99160.47;;;16.91;100.00
21960;BME280;11144;43.030;25.108;2023-05-28T06:25:06;99158.25;;;16.97;100.00
21960;BME280;11144;43.030;25.108;2023-05-28T06:26:42;99154.72;;;16.97;100.00
21960;BME280;11144;43.030;25.108;2023-05-28T06:28:15;99152.72;;;17.00;100.00
21960;BME280;11144;43.030;25.108;2023-05-28T06:29:49;99155.38;;;17.00;100.00
21960;BME280;11144;43.030;25.108;2023-05-28T06:31:22;99155.19;;;17.03;100.00
21960;BME280;11144;43.030;25.108;2023-05-28T06:32:57;99152.19;;;17.08;100.00
21960;BME280;11144;43.030;25.108;2023-05-28T06:34:30;99149.44;;;17.09;100.00
21960;BME280;11144;43.030;25.108;2023-05-28T06:36:05;99149.03;;;17.15;100.00
21960;BME280;11144;43.030;25.108;2023-05-28T06:37:39;99151.44;;;17.20;100.00
21960;BME280;11144;43.030;25.108;2023-05-28T06:39:13;99157.22;;;17.26;100.00
21960;BME280;11144;43.030;25.108;2023-05-28T06:40:52;99156.06;;;17.30;100.00
21960;BME280;11144;43.030;25.108;2023-05-28T06:42:27;99164.09;;;17.30;100.00
21960;BME280;11144;43.030;25.108;2023-05-28T06:44:11;99155.19;;;17.30;100.00
21960;BME280;11144;43.030;25.108;2023-05-28T06:45:49;99148.91;;;17.31;100.00
21960;BME280;11144;43.030;25.108;2023-05-28T06:47:23;99162.19;;;17.32;100.00
21960;BME280;11144;43.030;25.108;2023-05-28T06:48:56;99155.19;;;17.30;100.00
21960;BME280;11144;43.030;25.108;2023-05-28T06:50:29;99159.69;;;17.29;100.00
21960;BME280;11144;43.030;25.108;2023-05-28T06:52:03;99163.00;;;17.33;100.00
21960;BME280;11144;43.030;25.108;2023-05-28T06:53:37;99161.94;;;17.35;100.00
21960;BME280;11144;43.030;25.108;2023-05-28T06:55:10;99154.91;;;17.34;100.00
21960;BME280;11144;43.030;25.108;2023-05-28T06:56:57;99171.13;;;17.31;100.00
21960;BME280;11144;43.030;25.108;2023-05-28T06:59:00;99159.50;;;17.32;100.00
21960;BME280;11144;43.030;25.108;2023-05-28T07:00:52;99164.63;;;17.35;100.00
21960;BME280;11144;43.030;25.108;2023-05-28T07:02:44;99156.25;;;17.41;100.00
21960;BME280;11144;43.030;25.108;2023-05-28T07:04:27;99150.91;;;17.41;100.00
21960;BME280;11144;43.030;25.108;2023-05-28T07:06:10;99152.00;;;17.51;100.00
21960;BME280;11144;43.030;25.108;2023-05-28T07:07:43;99147.41;;;17.53;100.00
21960;BME280;11144;43.030;25.108;2023-05-28T07:09:16;99145.59;;;17.54;100.00
21960;BME280;11144;43.030;25.108;2023-05-28T07:10:50;99148.16;;;17.55;100.00
21960;BME280;11144;43.030;25.108;2023-05-28T07:12:24;99141.66;;;17.59;100.00
21960;BME280;11144;43.030;25.108;2023-05-28T07:14:02;99146.22;;;17.57;100.00
21960;BME280;11144;43.030;25.108;2023-05-28T07:15:35;99153.72;;;17.52;100.00
21960;BME280;11144;43.030;25.108;2023-05-28T07:17:12;99139.38;;;17.53;100.00
21960;BME280;11144;43.030;25.108;2023-05-28T07:18:48;99152.00;;;17.51;100.00
21960;BME280;11144;43.030;25.108;2023-05-28T07:20:22;99158.09;;;17.53;100.00
21960;BME280;11144;43.030;25.108;2023-05-28T07:21:59;99151.59;;;17.57;100.00
21960;BME280;11144;43.030;25.108;2023-05-28T07:23:33;99153.09;;;17.61;100.00
21960;BME280;11144;43.030;25.108;2023-05-28T07:25:07;99155.03;;;17.59;100.00
21960;BME280;11144;43.030;25.108;2023-05-28T07:26:42;99150.06;;;17.53;100.00
21960;BME280;11144;43.030;25.108;2023-05-28T07:28:18;99155.44;;;17.53;100.00
21960;BME280;11144;43.030;25.108;2023-05-28T07:29:51;99157.16;;;17.54;100.00
21960;BME280;11144;43.030;25.108;2023-05-28T07:31:25;99160.78;;;17.53;100.00
21960;BME280;11144;43.030;25.108;2023-05-28T07:32:58;99156.94;;;17.57;100.00
21960;BME280;11144;43.030;25.108;2023-05-28T07:34:32;99153.31;;;17.58;100.00
21960;BME280;11144;43.030;25.108;2023-05-28T07:36:06;99141.31;;;17.51;100.00
21960;BME280;11144;43.030;25.108;2023-05-28T07:37:41;99149.00;;;17.43;100.00
21960;BME280;11144;43.030;25.108;2023-05-28T07:39:15;99150.91;;;17.41;100.00
21960;BME280;11144;43.030;25.108;2023-05-28T07:40:49;99144.00;;;17.37;100.00
21960;BME280;11144;43.030;25.108;2023-05-28T07:42:58;99160.25;;;17.34;100.00
21960;BME280;11144;43.030;25.108;2023-05-28T07:44:33;99167.72;;;17.29;100.00
21960;BME280;11144;43.030;25.108;2023-05-28T07:46:07;99163.31;;;17.28;100.00
21960;BME280;11144;43.030;25.108;2023-05-28T07:47:49;99163.44;;;17.27;100.00
21960;BME280;11144;43.030;25.108;2023-05-28T07:49:41;99166.84;;;17.29;100.00
21960;BME280;11144;43.030;25.108;2023-05-28T07:51:15;99164.94;;;17.31;100.00
21960;BME280;11144;43.030;25.108;2023-05-28T07:52:53;99169.22;;;17.33;100.00
21960;BME280;11144;43.030;25.108;2023-05-28T07:54:27;99162.81;;;17.36;100.00
21960;BME280;11144;43.030;25.108;2023-05-28T07:56:01;99160.06;;;17.37;100.00
21960;BME280;11144;43.030;25.108;2023-05-28T07:57:36;99153.63;;;17.40;100.00
21960;BME280;11144;43.030;25.108;2023-05-28T07:59:10;99156.06;;;17.44;100.00
21960;BME280;11144;43.030;25.108;2023-05-28T08:00:49;99149.44;;;17.50;100.00
21960;BME280;11144;43.030;25.108;2023-05-28T08:02:22;99152.41;;;17.45;100.00
21960;BME280;11144;43.030;25.108;2023-05-28T08:03:56;99156.25;;;17.41;100.00
21960;BME280;11144;43.030;25.108;2023-05-28T08:05:36;99151.06;;;17.38;100.00
21960;BME280;11144;43.030;25.108;2023-05-28T08:07:10;99159.84;;;17.40;100.00
21960;BME280;11144;43.030;25.108;2023-05-28T08:08:44;99152.78;;;17.39;100.00
21960;BME280;11144;43.030;25.108;2023-05-28T08:10:18;99158.13;;;17.39;100.00
21960;BME280;11144;43.030;25.108;2023-05-28T08:11:52;99159.84;;;17.40;100.00
21960;BME280;11144;43.030;25.108;2023-05-28T08:13:27;99149.94;;;17.42;100.00